createdAt,value
2022-12-24T00:01:01.143Z,61.90
2022-12-24T00:03:28.244Z,61.90
2022-12-24T00:05:55.189Z,61.90
2022-12-24T00:08:22.346Z,61.90
2022-12-24T00:10:51.284Z,61.90
2022-12-24T00:13:18.757Z,61.90
2022-12-24T00:15:46.029Z,61.90
2022-12-24T00:18:13.300Z,61.90
2022-12-24T00:20:40.115Z,61.80
2022-12-24T00:23:07.121Z,61.90
2022-12-24T00:25:33.936Z,62.00
2022-12-24T00:28:00.703Z,61.90
2022-12-24T00:30:27.476Z,61.80
2022-12-24T00:32:54.430Z,61.80
2022-12-24T00:35:21.718Z,61.80
2022-12-24T00:37:49.589Z,61.80
2022-12-24T00:40:18.080Z,61.80
2022-12-24T00:42:44.899Z,61.80
2022-12-24T00:45:13.085Z,61.70
2022-12-24T00:47:39.759Z,61.80
2022-12-24T00:50:07.929Z,61.80
2022-12-24T00:52:34.775Z,61.70
2022-12-24T00:55:01.564Z,61.70
2022-12-24T00:57:28.393Z,61.70
2022-12-24T00:59:55.258Z,61.70
2022-12-24T01:02:22.267Z,61.70
2022-12-24T01:05:08.162Z,61.70
2022-12-24T01:07:34.959Z,61.60
2022-12-24T01:10:01.779Z,61.60
2022-12-24T01:12:28.668Z,61.70
2022-12-24T01:14:55.578Z,61.60
2022-12-24T01:17:24.484Z,61.60
2022-12-24T01:19:51.376Z,61.60
2022-12-24T01:22:18.234Z,61.60
2022-12-24T01:24:45.728Z,61.50
2022-12-24T01:27:12.499Z,61.60
2022-12-24T01:29:39.277Z,61.50
2022-12-24T01:32:06.184Z,61.60
2022-12-24T01:34:33.060Z,61.50
2022-12-24T01:37:02.820Z,61.50
2022-12-24T01:39:30.138Z,61.50
2022-12-24T01:42:15.363Z,61.50
2022-12-24T01:44:44.305Z,61.50
2022-12-24T01:47:27.933Z,61.50
2022-12-24T01:49:59.579Z,61.50
2022-12-24T01:52:34.336Z,61.50
2022-12-24T01:55:05.976Z,61.50
2022-12-24T01:57:39.847Z,61.50
2022-12-24T02:00:10.933Z,61.50
2022-12-24T02:02:41.223Z,61.50
2022-12-24T02:05:34.902Z,61.50
2022-12-24T02:08:03.820Z,61.50
2022-12-24T02:10:30.771Z,61.50
2022-12-24T02:12:59.410Z,61.50
2022-12-24T02:15:30.410Z,61.50
2022-12-24T02:18:12.712Z,61.50
2022-12-24T02:21:08.776Z,61.40
2022-12-24T02:23:54.659Z,61.50
2022-12-24T02:26:31.950Z,61.50
2022-12-24T02:28:58.648Z,61.50
2022-12-24T02:31:37.178Z,61.40
2022-12-24T02:34:07.148Z,61.40
2022-12-24T02:37:03.923Z,62.00
2022-12-24T02:39:46.636Z,61.40
2022-12-24T02:42:17.365Z,62.00
2022-12-24T02:44:52.438Z,62.00
2022-12-24T02:47:21.918Z,61.40
2022-12-24T02:49:49.290Z,61.40
2022-12-24T02:52:33.196Z,61.40
2022-12-24T02:55:03.886Z,61.90
2022-12-24T02:57:33.680Z,61.40
2022-12-24T03:00:13.276Z,61.30
2022-12-24T03:03:07.862Z,61.30
2022-12-24T03:05:46.132Z,61.30
2022-12-24T03:08:16.449Z,61.30
2022-12-24T03:10:52.664Z,61.30
2022-12-24T03:13:20.705Z,61.30
2022-12-24T03:15:48.986Z,61.30
2022-12-24T03:18:20.062Z,61.40
2022-12-24T03:21:09.440Z,61.30
2022-12-24T03:23:36.606Z,61.30
2022-12-24T03:26:07.934Z,61.30
2022-12-24T03:28:36.992Z,61.30
2022-12-24T03:31:05.990Z,61.30
2022-12-24T03:33:33.069Z,61.30
2022-12-24T03:35:59.902Z,61.30
2022-12-24T03:38:26.701Z,61.30
2022-12-24T03:40:53.830Z,61.30
2022-12-24T03:43:20.641Z,61.30
2022-12-24T03:45:47.436Z,61.30
2022-12-24T03:48:14.254Z,61.30
2022-12-24T03:50:41.042Z,61.30
2022-12-24T03:53:08.332Z,61.20
2022-12-24T03:55:35.082Z,61.20
2022-12-24T03:58:01.892Z,61.20
2022-12-24T04:00:28.626Z,61.20
2022-12-24T04:02:55.952Z,61.20
2022-12-24T04:05:23.041Z,61.20
2022-12-24T04:07:50.039Z,61.20
2022-12-24T04:10:17.279Z,61.20
2022-12-24T04:12:44.652Z,61.20
2022-12-24T04:15:11.904Z,61.20
2022-12-24T04:17:38.752Z,61.80
2022-12-24T04:20:06.407Z,61.20
2022-12-24T04:22:33.674Z,61.10
2022-12-24T04:25:00.981Z,61.20
2022-12-24T04:27:30.584Z,61.20
2022-12-24T04:29:57.855Z,61.20
2022-12-24T04:32:27.414Z,61.20
2022-12-24T04:34:54.235Z,61.20
2022-12-24T04:37:21.042Z,61.20
2022-12-24T04:39:48.324Z,61.20
2022-12-24T04:42:15.123Z,61.20
2022-12-24T04:44:41.853Z,61.10
2022-12-24T04:47:11.357Z,61.10
2022-12-24T04:49:38.135Z,61.10
2022-12-24T04:52:05.210Z,61.10
2022-12-24T04:54:32.101Z,61.10
2022-12-24T04:56:59.541Z,61.10
2022-12-24T04:59:26.751Z,61.70
2022-12-24T05:01:54.103Z,61.10
2022-12-24T05:04:21.400Z,61.10
2022-12-24T05:06:48.176Z,61.10
2022-12-24T05:09:14.913Z,61.00
2022-12-24T05:11:41.639Z,61.00
2022-12-24T05:14:08.406Z,61.00
2022-12-24T05:16:35.218Z,61.10
2022-12-24T05:19:02.079Z,61.00
2022-12-24T05:21:28.836Z,61.00
2022-12-24T05:24:14.130Z,61.00
2022-12-24T05:26:46.271Z,61.10
2022-12-24T05:29:13.264Z,61.00
2022-12-24T05:31:40.704Z,61.00
2022-12-24T05:34:08.863Z,60.90
2022-12-24T05:36:36.188Z,61.00
2022-12-24T05:39:04.808Z,61.00
2022-12-24T05:41:34.641Z,61.00
2022-12-24T05:44:01.415Z,61.00
2022-12-24T05:46:28.775Z,61.00
2022-12-24T05:48:56.112Z,61.00
2022-12-24T05:51:23.570Z,60.90
2022-12-24T05:53:51.875Z,60.90
2022-12-24T05:56:24.401Z,61.00
2022-12-24T05:58:52.947Z,61.10
2022-12-24T06:01:20.408Z,61.20
2022-12-24T06:03:49.423Z,61.30
2022-12-24T06:06:20.770Z,61.30
2022-12-24T06:08:49.478Z,61.30
2022-12-24T06:11:22.167Z,61.40
2022-12-24T06:13:49.490Z,61.40
2022-12-24T06:16:19.071Z,61.40
2022-12-24T06:18:46.242Z,61.50
2022-12-24T06:21:13.919Z,61.60
2022-12-24T06:23:42.931Z,61.60
2022-12-24T06:26:12.847Z,61.60
2022-12-24T06:28:40.511Z,61.60
2022-12-24T06:31:10.881Z,61.60
2022-12-24T06:33:38.139Z,61.60
2022-12-24T06:36:14.963Z,61.60
2022-12-24T06:38:44.720Z,61.60
2022-12-24T06:41:11.567Z,61.60
2022-12-24T06:43:38.373Z,61.60
2022-12-24T06:46:05.436Z,61.60
2022-12-24T06:48:32.317Z,61.60
2022-12-24T06:51:02.203Z,61.60
2022-12-24T06:53:29.021Z,61.60
2022-12-24T06:56:06.980Z,61.60
2022-12-24T06:58:34.446Z,61.70
2022-12-24T07:01:03.354Z,61.80
2022-12-24T07:03:30.390Z,61.90
2022-12-24T07:05:57.209Z,61.80
2022-12-24T07:08:24.544Z,61.80
2022-12-24T07:10:54.495Z,61.90
2022-12-24T07:13:22.332Z,62.00
2022-12-24T07:16:01.887Z,61.90
2022-12-24T07:18:29.522Z,61.90
2022-12-24T07:20:56.346Z,61.80
2022-12-24T07:23:23.218Z,61.90
2022-12-24T07:25:50.018Z,61.90
2022-12-24T07:28:25.513Z,61.80
2022-12-24T07:30:55.234Z,61.90
2022-12-24T07:33:22.513Z,61.90
2022-12-24T07:35:55.712Z,62.00
2022-12-24T07:38:22.755Z,62.10
2022-12-24T07:40:51.833Z,61.20
2022-12-24T07:43:18.595Z,60.80
2022-12-24T07:45:46.153Z,60.90
2022-12-24T07:48:13.034Z,61.10
2022-12-24T07:50:39.817Z,61.20
2022-12-24T07:53:07.039Z,61.30
2022-12-24T07:55:36.216Z,61.30
2022-12-24T07:58:02.975Z,61.60
2022-12-24T08:00:29.744Z,61.60
2022-12-24T08:02:56.705Z,61.80
2022-12-24T08:05:23.602Z,61.90
2022-12-24T08:07:50.876Z,62.00
2022-12-24T08:10:17.739Z,62.00
2022-12-24T08:12:45.692Z,62.10
2022-12-24T08:15:15.304Z,62.10
2022-12-24T08:17:42.543Z,62.20
2022-12-24T08:20:09.686Z,62.20
2022-12-24T08:22:36.446Z,62.20
2022-12-24T08:25:03.848Z,62.20
2022-12-24T08:27:30.596Z,62.10
2022-12-24T08:29:57.369Z,62.10
2022-12-24T08:32:24.121Z,62.10
2022-12-24T08:34:50.900Z,62.00
2022-12-24T08:37:17.627Z,62.00
2022-12-24T08:39:44.897Z,62.00
2022-12-24T08:42:11.697Z,62.00
2022-12-24T08:44:41.136Z,61.90
2022-12-24T08:47:08.490Z,62.00
2022-12-24T08:49:35.291Z,61.90
2022-12-24T08:52:02.040Z,62.00
2022-12-24T08:54:29.308Z,61.90
2022-12-24T08:56:56.132Z,61.90
2022-12-24T08:59:22.996Z,61.90
2022-12-24T09:01:49.837Z,61.80
2022-12-24T09:04:17.348Z,61.80
2022-12-24T09:06:44.131Z,61.80
2022-12-24T09:09:10.906Z,61.80
2022-12-24T09:11:37.710Z,61.80
2022-12-24T09:14:05.579Z,61.90
2022-12-24T09:16:32.822Z,61.80
2022-12-24T09:19:00.148Z,61.90
2022-12-24T09:21:27.479Z,61.90
2022-12-24T09:23:54.264Z,61.90
2022-12-24T09:26:24.354Z,61.90
2022-12-24T09:28:53.390Z,61.60
2022-12-24T09:31:21.574Z,61.00
2022-12-24T09:33:49.335Z,61.00
2022-12-24T09:36:16.764Z,61.20
2022-12-24T09:38:44.191Z,61.20
2022-12-24T09:41:35.478Z,61.40
2022-12-24T09:44:27.283Z,61.10
2022-12-24T09:46:54.981Z,60.50
2022-12-24T09:49:38.062Z,60.20
2022-12-24T09:52:15.014Z,60.70
2022-12-24T09:54:49.696Z,60.80
2022-12-24T09:57:35.573Z,60.90
2022-12-24T10:00:03.877Z,60.90
2022-12-24T10:02:32.697Z,60.90
2022-12-24T10:04:59.647Z,60.90
2022-12-24T10:07:41.447Z,61.00
2022-12-24T10:10:29.354Z,61.00
2022-12-24T10:13:02.194Z,61.20
2022-12-24T10:15:32.829Z,61.30
2022-12-24T10:18:35.671Z,61.30
2022-12-24T10:21:36.484Z,61.20
2022-12-24T10:24:15.041Z,61.30
2022-12-24T10:27:06.163Z,61.30
2022-12-24T10:29:41.260Z,61.40
2022-12-24T10:32:07.966Z,61.40
2022-12-24T10:34:42.987Z,61.40
2022-12-24T10:37:20.256Z,61.30
2022-12-24T10:39:49.455Z,61.40
2022-12-24T10:42:18.601Z,61.40
2022-12-24T10:44:50.741Z,61.40
2022-12-24T10:47:20.916Z,61.40
2022-12-24T10:50:05.750Z,61.40
2022-12-24T10:52:39.104Z,61.40
2022-12-24T10:55:09.169Z,61.50
2022-12-24T10:57:36.579Z,61.50
2022-12-24T11:00:06.475Z,61.50
2022-12-24T11:02:38.185Z,61.50
2022-12-24T11:05:27.487Z,61.50
2022-12-24T11:08:21.196Z,61.60
2022-12-24T11:11:16.413Z,61.60
2022-12-24T11:13:55.289Z,61.50
2022-12-24T11:16:32.228Z,61.60
2022-12-24T11:19:01.534Z,61.50
2022-12-24T11:21:31.560Z,61.50
2022-12-24T11:24:06.129Z,61.50
2022-12-24T11:26:45.243Z,61.50
2022-12-24T11:29:15.451Z,61.50
2022-12-24T11:31:46.168Z,61.60
2022-12-24T11:34:26.159Z,61.60
2022-12-24T11:36:54.785Z,61.60
2022-12-24T11:39:24.736Z,61.60
2022-12-24T11:41:53.752Z,61.50
2022-12-24T11:44:28.255Z,61.40
2022-12-24T11:46:59.494Z,60.90
2022-12-24T11:49:32.181Z,60.40
2022-12-24T11:52:23.939Z,60.10
2022-12-24T11:55:16.326Z,59.80
2022-12-24T11:58:21.687Z,60.00
2022-12-24T12:00:51.612Z,60.40
2022-12-24T12:03:37.200Z,60.70
2022-12-24T12:06:07.671Z,60.90
2022-12-24T12:08:38.461Z,61.10
2022-12-24T12:11:13.129Z,61.20
2022-12-24T12:13:43.832Z,61.20
2022-12-24T12:16:21.810Z,61.40
2022-12-24T12:18:52.917Z,61.40
2022-12-24T12:21:25.329Z,61.50
2022-12-24T12:24:08.508Z,61.60
2022-12-24T12:26:36.129Z,61.70
2022-12-24T12:29:17.399Z,61.80
2022-12-24T12:31:57.695Z,61.90
2022-12-24T12:34:36.920Z,62.00
2022-12-24T12:37:24.198Z,62.10
2022-12-24T12:39:51.995Z,62.10
2022-12-24T12:42:31.354Z,62.20
2022-12-24T12:45:17.499Z,62.20
2022-12-24T12:47:44.236Z,62.20
2022-12-24T12:50:25.466Z,62.30
2022-12-24T12:53:13.589Z,62.30
2022-12-24T12:56:14.775Z,62.40
2022-12-24T12:59:17.515Z,62.30
2022-12-24T13:01:47.614Z,62.30
2022-12-24T13:04:39.115Z,62.40
2022-12-24T13:07:14.987Z,62.30
2022-12-24T13:10:04.718Z,62.30
2022-12-24T13:12:37.377Z,62.40
2022-12-24T13:15:09.916Z,62.30
2022-12-24T13:17:48.439Z,62.60
2022-12-24T13:20:29.768Z,62.40
2022-12-24T13:23:02.232Z,62.40
2022-12-24T13:25:47.126Z,62.40
2022-12-24T13:28:22.892Z,62.70
2022-12-24T13:31:14.306Z,62.60
2022-12-24T13:33:41.709Z,62.60
2022-12-24T13:36:20.061Z,62.60
2022-12-24T13:38:55.020Z,62.60
2022-12-24T13:41:39.330Z,62.60
2022-12-24T13:44:08.184Z,62.60
2022-12-24T13:46:48.801Z,62.60
2022-12-24T13:49:18.354Z,62.70
2022-12-24T13:51:45.631Z,62.60
2022-12-24T13:54:14.855Z,62.60
2022-12-24T13:56:42.520Z,62.60
2022-12-24T13:59:21.628Z,62.60
2022-12-24T14:01:48.673Z,62.60
2022-12-24T14:04:27.412Z,62.60
2022-12-24T14:06:57.940Z,62.70
2022-12-24T14:09:27.684Z,62.70
2022-12-24T14:11:57.077Z,62.70
2022-12-24T14:14:33.562Z,62.70
2022-12-24T14:17:03.419Z,62.90
2022-12-24T14:19:44.279Z,62.70
2022-12-24T14:22:23.256Z,61.80
2022-12-24T14:24:55.315Z,61.60
2022-12-24T14:27:48.656Z,61.70
2022-12-24T14:30:24.891Z,61.80
2022-12-24T14:32:53.018Z,62.00
2022-12-24T14:35:21.374Z,62.00
2022-12-24T14:38:05.506Z,62.10
2022-12-24T14:40:39.868Z,62.10
2022-12-24T14:43:25.155Z,62.10
2022-12-24T14:46:17.593Z,62.10
2022-12-24T14:48:58.069Z,62.40
2022-12-24T14:51:39.015Z,62.50
2022-12-24T14:54:26.059Z,62.40
2022-12-24T14:57:11.273Z,62.40
2022-12-24T14:59:45.940Z,62.40
2022-12-24T15:02:50.062Z,62.30
2022-12-24T15:05:25.161Z,62.30
2022-12-24T15:08:01.724Z,62.40
2022-12-24T15:10:34.624Z,62.50
2022-12-24T15:13:22.193Z,62.50
2022-12-24T15:15:53.123Z,62.50
2022-12-24T15:18:26.909Z,62.50
2022-12-24T15:21:03.688Z,62.50
2022-12-24T15:23:34.576Z,62.50
2022-12-24T15:26:27.945Z,62.60
2022-12-24T15:29:02.863Z,62.60
2022-12-24T15:31:31.257Z,62.60
2022-12-24T15:34:02.158Z,62.60
2022-12-24T15:36:37.749Z,62.60
2022-12-24T15:39:08.402Z,62.60
2022-12-24T15:42:01.996Z,62.60
2022-12-24T15:44:40.543Z,62.60
2022-12-24T15:47:14.516Z,62.70
2022-12-24T15:49:48.872Z,62.60
2022-12-24T15:52:18.848Z,62.60
2022-12-24T15:54:50.753Z,62.50
2022-12-24T15:57:34.522Z,62.60
2022-12-24T16:00:04.009Z,62.80
2022-12-24T16:02:40.783Z,62.90
2022-12-24T16:05:26.836Z,63.10
2022-12-24T16:08:10.408Z,63.20
2022-12-24T16:10:44.535Z,63.30
2022-12-24T16:13:29.876Z,63.60
2022-12-24T16:16:03.478Z,63.70
2022-12-24T16:18:40.253Z,63.80
2022-12-24T16:21:08.098Z,64.00
2022-12-24T16:23:46.626Z,64.00
2022-12-24T16:26:13.926Z,64.20
2022-12-24T16:28:40.717Z,64.10
2022-12-24T16:31:07.723Z,64.20
2022-12-24T16:33:34.668Z,64.30
2022-12-24T16:36:01.497Z,64.10
2022-12-24T16:38:50.428Z,64.20
2022-12-24T16:41:17.649Z,64.30
2022-12-24T16:43:50.749Z,64.20
2022-12-24T16:46:18.591Z,64.30
2022-12-24T16:48:48.327Z,64.30
2022-12-24T16:51:15.418Z,64.40
2022-12-24T16:53:42.750Z,64.40
2022-12-24T16:56:10.034Z,64.40
2022-12-24T16:58:37.334Z,64.40
2022-12-24T17:01:09.031Z,64.50
2022-12-24T17:03:36.213Z,64.50
2022-12-24T17:06:06.346Z,64.60
2022-12-24T17:08:33.141Z,64.60
2022-12-24T17:10:59.935Z,64.50
2022-12-24T17:13:26.989Z,64.60
2022-12-24T17:15:53.809Z,64.60
2022-12-24T17:18:21.071Z,65.00
2022-12-24T17:21:00.880Z,64.80
2022-12-24T17:23:28.320Z,64.80
2022-12-24T17:25:55.781Z,64.70
2022-12-24T17:28:23.095Z,64.80
2022-12-24T17:30:50.136Z,65.30
2022-12-24T17:33:17.395Z,64.70
2022-12-24T17:35:46.266Z,64.70
2022-12-24T17:38:13.016Z,64.60
2022-12-24T17:40:39.939Z,64.60
2022-12-24T17:43:09.831Z,64.60
2022-12-24T17:45:41.304Z,64.60
2022-12-24T17:48:08.287Z,64.50
2022-12-24T17:50:39.881Z,64.50
2022-12-24T17:53:06.724Z,64.50
2022-12-24T17:55:33.548Z,64.50
2022-12-24T17:58:01.258Z,64.40
2022-12-24T18:00:32.763Z,64.40
2022-12-24T18:03:00.174Z,64.40
2022-12-24T18:05:27.169Z,64.30
2022-12-24T18:07:54.113Z,64.30
2022-12-24T18:10:21.333Z,64.20
2022-12-24T18:12:48.565Z,64.10
2022-12-24T18:15:19.979Z,64.10
2022-12-24T18:17:54.222Z,64.10
2022-12-24T18:20:22.297Z,64.00
2022-12-24T18:22:49.408Z,64.00
2022-12-24T18:25:16.838Z,64.00
2022-12-24T18:27:43.606Z,64.00
2022-12-24T18:30:11.236Z,64.00
2022-12-24T18:32:38.925Z,64.00
2022-12-24T18:35:07.143Z,64.00
2022-12-24T18:37:34.553Z,63.90
2022-12-24T18:40:02.216Z,63.90
2022-12-24T18:42:29.035Z,63.80
2022-12-24T18:44:58.511Z,63.90
2022-12-24T18:47:25.321Z,63.80
2022-12-24T18:49:52.198Z,63.70
2022-12-24T18:52:22.814Z,63.70
2022-12-24T18:54:50.661Z,63.60
2022-12-24T18:57:19.727Z,63.40
2022-12-24T18:59:46.486Z,63.30
2022-12-24T19:02:13.325Z,63.40
2022-12-24T19:04:40.827Z,63.40
2022-12-24T19:07:07.598Z,63.20
2022-12-24T19:09:37.025Z,63.10
2022-12-24T19:12:04.407Z,62.80
2022-12-24T19:14:31.708Z,62.60
2022-12-24T19:16:59.043Z,62.40
2022-12-24T19:19:26.357Z,62.20
2022-12-24T19:21:53.685Z,61.90
2022-12-24T19:24:20.963Z,61.80
2022-12-24T19:26:48.752Z,62.00
2022-12-24T19:29:17.815Z,60.70
2022-12-24T19:31:47.295Z,61.70
2022-12-24T19:34:15.067Z,61.70
2022-12-24T19:36:42.384Z,61.70
2022-12-24T19:39:09.193Z,61.80
2022-12-24T19:41:36.432Z,61.80
2022-12-24T19:44:03.741Z,61.80
2022-12-24T19:46:34.009Z,61.80
2022-12-24T19:49:05.239Z,61.80
2022-12-24T19:51:33.442Z,61.80
2022-12-24T19:54:01.597Z,61.80
2022-12-24T19:56:31.120Z,61.80
2022-12-24T19:58:59.350Z,61.90
2022-12-24T20:01:27.308Z,61.80
2022-12-24T20:03:55.011Z,61.90
2022-12-24T20:06:24.088Z,61.90
2022-12-24T20:08:51.247Z,61.80
2022-12-24T20:11:20.179Z,61.80
2022-12-24T20:13:47.067Z,61.80
2022-12-24T20:16:17.288Z,61.70
2022-12-24T20:18:44.571Z,61.90
2022-12-24T20:21:13.134Z,61.90
2022-12-24T20:23:41.214Z,61.90
2022-12-24T20:26:11.003Z,62.00
2022-12-24T20:28:38.525Z,62.00
2022-12-24T20:31:14.630Z,62.10
2022-12-24T20:33:42.519Z,62.00
2022-12-24T20:36:10.427Z,62.10
2022-12-24T20:38:38.388Z,62.10
2022-12-24T20:41:06.338Z,62.10
2022-12-24T20:43:37.249Z,62.20
2022-12-24T20:46:07.677Z,62.10
2022-12-24T20:48:35.403Z,62.10
2022-12-24T20:51:08.118Z,62.20
2022-12-24T20:53:36.167Z,62.10
2022-12-24T20:56:04.134Z,62.10
2022-12-24T20:58:31.395Z,62.10
2022-12-24T21:00:58.208Z,62.10
2022-12-24T21:03:25.971Z,62.10
2022-12-24T21:05:53.584Z,62.10
2022-12-24T21:08:20.358Z,62.10
2022-12-24T21:10:47.639Z,62.10
2022-12-24T21:13:14.418Z,62.10
2022-12-24T21:15:41.815Z,62.10
2022-12-24T21:18:12.340Z,62.00
2022-12-24T21:20:40.863Z,62.00
2022-12-24T21:23:08.779Z,62.00
2022-12-24T21:25:35.775Z,62.00
2022-12-24T21:28:03.039Z,62.10
2022-12-24T21:30:29.941Z,62.00
2022-12-24T21:32:56.779Z,62.00
2022-12-24T21:35:24.043Z,62.00
2022-12-24T21:37:51.235Z,61.90
2022-12-24T21:40:18.147Z,62.00
2022-12-24T21:42:44.931Z,61.90
2022-12-24T21:45:12.002Z,61.90
2022-12-24T21:47:39.311Z,61.90
2022-12-24T21:50:31.605Z,61.90
2022-12-24T21:53:18.992Z,62.00
2022-12-24T21:55:45.808Z,62.10
2022-12-24T21:58:12.776Z,62.20
2022-12-24T22:00:39.850Z,62.30
2022-12-24T22:03:06.747Z,62.30
2022-12-24T22:05:35.099Z,62.40
2022-12-24T22:08:20.957Z,62.40
2022-12-24T22:11:06.175Z,62.40
2022-12-24T22:13:35.810Z,62.40
2022-12-24T22:16:02.606Z,62.50
2022-12-24T22:18:29.372Z,62.40
2022-12-24T22:20:56.323Z,62.40
2022-12-24T22:23:23.081Z,62.40
2022-12-24T22:25:49.851Z,62.40
2022-12-24T22:28:16.607Z,62.40
2022-12-24T22:30:43.468Z,62.30
2022-12-24T22:33:10.910Z,62.30
2022-12-24T22:35:39.384Z,62.30
2022-12-24T22:38:09.246Z,62.30
2022-12-24T22:40:39.260Z,62.20
2022-12-24T22:43:06.038Z,62.30
2022-12-24T22:45:35.542Z,62.30
2022-12-24T22:48:02.427Z,62.20
2022-12-24T22:50:29.226Z,62.20
2022-12-24T22:52:56.027Z,62.20
2022-12-24T22:55:23.107Z,62.10
2022-12-24T22:57:49.906Z,62.20
2022-12-24T23:00:36.251Z,62.10
2022-12-24T23:03:04.737Z,62.10
2022-12-24T23:05:31.693Z,62.10
2022-12-24T23:07:58.675Z,62.10
2022-12-24T23:10:25.531Z,62.00
2022-12-24T23:13:14.891Z,62.10
2022-12-24T23:15:43.457Z,62.00
2022-12-24T23:18:13.180Z,62.00
2022-12-24T23:20:47.519Z,62.00
2022-12-24T23:23:15.847Z,62.00
2022-12-24T23:25:43.060Z,61.90
2022-12-24T23:28:09.820Z,61.90
2022-12-24T23:30:36.772Z,61.90
2022-12-24T23:33:04.065Z,61.90
2022-12-24T23:35:33.585Z,61.80
2022-12-24T23:38:00.791Z,61.90
2022-12-24T23:40:28.047Z,61.80
2022-12-24T23:42:55.285Z,61.80
2022-12-24T23:45:22.013Z,61.80
2022-12-24T23:47:48.797Z,61.80
2022-12-24T23:50:16.078Z,61.80
2022-12-24T23:52:42.890Z,61.80
2022-12-24T23:55:10.283Z,61.80
2022-12-24T23:57:37.567Z,61.70
